KDBN

W H 'bud' Barron Airport

Dublin, Georgia, USA
METAR KDBN 250455Z AUTO 00000KT 10SM OVC010 21/21 A3012 RMK AO2
Observed Flight Rules
May-25 @ 04:55 UTC (34 minutes ago) Marginal Visual Flight Rules
Visibility Clouds
10 miles
  • Overcast at 1,000' AGL
Temperatures Readings
Current 21°C / 70°F
Dewpoint 21°C / 70°F
Humidity 100%
Altimeter 30.12" Hg
Pressure 1020 hPa
Elevation 94
METAR KDBN 250455Z AUTO 00000KT 10SM OVC010 21/21 A3012 RMK AO2
Observed Flight Rules
May-25 @ 04:55 UTC
(34 minutes ago)
MVFR
Clouds
  • Overcast at 1,000' AGL
Temperature Dewpoint
21°C / 70°F 21°C / 70°F
Humidity Altimeter Pressure
100% 30.12" Hg 1020 hPa